createdAt,value
2023-04-18T00:00:26.465Z,38.54
2023-04-18T00:01:26.529Z,38.54
2023-04-18T00:02:26.513Z,38.54
2023-04-18T00:03:26.589Z,38.58
2023-04-18T00:04:26.503Z,38.56
2023-04-18T00:05:26.402Z,38.57
2023-04-18T00:06:26.399Z,38.56
2023-04-18T00:07:26.445Z,38.50
2023-04-18T00:08:26.425Z,38.54
2023-04-18T00:09:26.552Z,38.50
2023-04-18T00:10:26.463Z,38.54
2023-04-18T00:11:26.499Z,38.50
2023-04-18T00:12:26.517Z,38.61
2023-04-18T00:13:26.523Z,38.54
2023-04-18T00:14:26.548Z,38.59
2023-04-18T00:15:26.593Z,38.56
2023-04-18T00:16:26.651Z,38.61
2023-04-18T00:17:26.686Z,38.56
2023-04-18T00:18:26.747Z,38.58
2023-04-18T00:19:26.693Z,38.57
2023-04-18T00:20:26.711Z,38.63
2023-04-18T00:21:26.739Z,38.59
2023-04-18T00:22:26.751Z,38.56
2023-04-18T00:23:26.797Z,38.58
2023-04-18T00:24:26.831Z,38.57
2023-04-18T00:25:26.881Z,38.65
2023-04-18T00:26:26.910Z,38.57
2023-04-18T00:27:26.926Z,38.60
2023-04-18T00:28:26.975Z,38.56
2023-04-18T00:29:27.007Z,38.56
2023-04-18T00:30:27.013Z,38.53
2023-04-18T00:31:27.043Z,38.57
2023-04-18T00:32:27.079Z,38.60
2023-04-18T00:33:27.187Z,38.60
2023-04-18T00:34:27.017Z,38.60
2023-04-18T00:35:27.037Z,38.65
2023-04-18T00:36:27.064Z,38.62
2023-04-18T00:37:27.055Z,38.62
2023-04-18T00:38:27.076Z,38.60
2023-04-18T00:39:27.104Z,38.62
2023-04-18T00:40:27.140Z,38.62
2023-04-18T00:41:27.179Z,38.62
2023-04-18T00:42:27.190Z,38.60
2023-04-18T00:43:27.221Z,38.61
2023-04-18T00:44:27.249Z,38.66
2023-04-18T00:45:27.271Z,38.63
2023-04-18T00:46:27.317Z,38.65
2023-04-18T00:47:27.359Z,38.63
2023-04-18T00:48:27.322Z,38.60
2023-04-18T00:49:27.319Z,38.67
2023-04-18T00:50:27.317Z,38.63
2023-04-18T00:51:27.312Z,38.63
2023-04-18T00:52:27.339Z,38.65
2023-04-18T00:53:27.325Z,38.65
2023-04-18T00:54:27.348Z,38.63
2023-04-18T00:55:27.337Z,38.62
2023-04-18T00:56:27.371Z,38.65
2023-04-18T00:57:27.381Z,38.67
2023-04-18T00:58:27.402Z,38.66
2023-04-18T00:59:27.369Z,38.63
2023-04-18T01:00:27.406Z,38.61
2023-04-18T01:01:27.463Z,38.67
2023-04-18T01:02:27.517Z,38.64
2023-04-18T01:03:27.515Z,38.63
2023-04-18T01:04:27.626Z,38.67
2023-04-18T01:05:27.529Z,38.64
2023-04-18T01:06:27.543Z,38.71
2023-04-18T01:07:27.548Z,38.69
2023-04-18T01:08:27.566Z,38.71
2023-04-18T01:09:27.576Z,38.66
2023-04-18T01:10:27.573Z,38.71
2023-04-18T01:11:27.589Z,38.68
2023-04-18T01:12:27.575Z,38.71
2023-04-18T01:13:27.587Z,38.74
2023-04-18T01:14:27.590Z,38.63
2023-04-18T01:15:27.570Z,38.69
2023-04-18T01:16:27.630Z,38.66
2023-04-18T01:17:27.622Z,38.71
2023-04-18T01:18:27.564Z,38.71
2023-04-18T01:19:27.560Z,38.72
2023-04-18T01:20:27.553Z,38.74
2023-04-18T01:21:27.607Z,38.73
2023-04-18T01:22:27.542Z,38.68
2023-04-18T01:23:27.546Z,38.72
2023-04-18T01:24:27.539Z,38.65
2023-04-18T01:25:27.549Z,38.75
2023-04-18T01:26:27.568Z,38.64
2023-04-18T01:27:27.569Z,38.72
2023-04-18T01:28:27.598Z,38.73
2023-04-18T01:29:27.574Z,38.74
2023-04-18T01:30:27.581Z,38.75
2023-04-18T01:31:27.628Z,38.79
2023-04-18T01:32:27.618Z,38.81
2023-04-18T01:33:27.616Z,38.83
2023-04-18T01:34:27.595Z,38.87
2023-04-18T01:35:27.587Z,38.84
2023-04-18T01:36:27.643Z,38.98
2023-04-18T01:37:27.594Z,38.97
2023-04-18T01:38:27.620Z,38.94
2023-04-18T01:39:27.663Z,38.98
2023-04-18T01:40:27.667Z,38.98
2023-04-18T01:41:27.699Z,38.97
2023-04-18T01:42:27.739Z,38.95
2023-04-18T01:43:27.772Z,38.95
2023-04-18T01:44:27.821Z,39.01
2023-04-18T01:45:27.846Z,38.98
2023-04-18T01:46:27.934Z,38.97
2023-04-18T01:47:27.934Z,38.96
2023-04-18T01:48:27.942Z,38.97
2023-04-18T01:49:27.993Z,38.96
2023-04-18T01:50:28.009Z,38.95
2023-04-18T01:51:28.039Z,38.95
2023-04-18T01:52:28.080Z,38.91
2023-04-18T01:53:28.269Z,38.95
2023-04-18T01:54:28.167Z,38.92
2023-04-18T01:55:28.205Z,38.95
2023-04-18T01:56:28.250Z,38.99
2023-04-18T01:57:28.271Z,39.01
2023-04-18T01:58:28.307Z,38.91
2023-04-18T01:59:28.349Z,38.90
2023-04-18T02:00:28.474Z,38.90
2023-04-18T02:01:28.428Z,38.90
2023-04-18T02:02:28.554Z,38.89
2023-04-18T02:03:28.623Z,38.89
2023-04-18T02:04:28.540Z,38.92
2023-04-18T02:05:28.570Z,38.95
2023-04-18T02:06:28.604Z,38.93
2023-04-18T02:07:28.608Z,38.98
2023-04-18T02:08:28.647Z,38.98
2023-04-18T02:09:28.703Z,38.96
2023-04-18T02:10:28.740Z,38.95
2023-04-18T02:11:28.776Z,38.99
2023-04-18T02:12:28.814Z,38.96
2023-04-18T02:13:28.849Z,39.01
2023-04-18T02:14:28.897Z,38.96
2023-04-18T02:15:28.948Z,38.98
2023-04-18T02:16:29.011Z,38.95
2023-04-18T02:17:29.018Z,38.96
2023-04-18T02:18:29.037Z,38.95
2023-04-18T02:19:29.079Z,39.00
2023-04-18T02:20:29.162Z,38.95
2023-04-18T02:21:29.186Z,39.00
2023-04-18T02:22:29.212Z,39.00
2023-04-18T02:23:29.262Z,38.94
2023-04-18T02:24:29.297Z,39.02
2023-04-18T02:25:29.352Z,38.94
2023-04-18T02:26:29.391Z,38.95
2023-04-18T02:27:29.420Z,38.98
2023-04-18T02:28:29.460Z,39.10
2023-04-18T02:29:29.495Z,39.01
2023-04-18T02:30:29.531Z,39.06
2023-04-18T02:31:29.602Z,39.04
2023-04-18T02:32:29.620Z,39.06
2023-04-18T02:33:29.653Z,39.09
2023-04-18T02:34:29.690Z,39.08
2023-04-18T02:35:29.708Z,39.00
2023-04-18T02:36:29.752Z,39.02
2023-04-18T02:37:29.795Z,39.00
2023-04-18T02:38:29.817Z,39.04
2023-04-18T02:39:29.865Z,39.14
2023-04-18T02:40:29.910Z,39.07
2023-04-18T02:41:29.935Z,39.11
2023-04-18T02:42:29.967Z,39.14
2023-04-18T02:43:29.981Z,39.10
2023-04-18T02:44:30.007Z,39.09
2023-04-18T02:45:30.053Z,39.11
2023-04-18T02:46:30.165Z,39.08
2023-04-18T02:47:31.747Z,39.11
2023-04-18T02:48:31.152Z,39.11
2023-04-18T02:49:30.096Z,39.07
2023-04-18T02:50:30.070Z,39.08
2023-04-18T02:51:30.046Z,39.07
2023-04-18T02:52:30.024Z,39.03
2023-04-18T02:53:30.004Z,39.01
2023-04-18T02:54:29.978Z,39.06
2023-04-18T02:55:29.955Z,38.98
2023-04-18T02:56:29.942Z,39.08
2023-04-18T02:57:29.953Z,39.13
2023-04-18T02:58:30.004Z,39.16
2023-04-18T02:59:30.030Z,39.08
2023-04-18T03:00:30.048Z,39.10
2023-04-18T03:01:30.122Z,39.05
2023-04-18T03:02:30.219Z,39.14
2023-04-18T03:03:30.219Z,39.05
2023-04-18T03:04:30.236Z,39.12
2023-04-18T03:05:30.279Z,39.09
2023-04-18T03:06:30.295Z,39.14
2023-04-18T03:07:30.351Z,39.10
2023-04-18T03:08:30.385Z,39.16
2023-04-18T03:09:30.436Z,39.14
2023-04-18T03:10:30.466Z,39.13
2023-04-18T03:11:30.512Z,39.16
2023-04-18T03:12:30.560Z,39.18
2023-04-18T03:13:30.623Z,39.18
2023-04-18T03:14:30.639Z,39.19
2023-04-18T03:15:30.670Z,39.18
2023-04-18T03:16:30.723Z,39.20
2023-04-18T03:17:30.844Z,39.27
2023-04-18T03:18:30.789Z,39.23
2023-04-18T03:19:30.809Z,39.22
2023-04-18T03:20:30.845Z,39.20
2023-04-18T03:21:30.877Z,39.18
2023-04-18T03:22:30.923Z,39.20
2023-04-18T03:23:30.944Z,39.22
2023-04-18T03:24:31.010Z,39.18
2023-04-18T03:25:31.031Z,39.11
2023-04-18T03:26:31.041Z,39.16
2023-04-18T03:27:31.064Z,39.14
2023-04-18T03:28:31.107Z,39.16
2023-04-18T03:29:31.116Z,39.20
2023-04-18T03:30:31.146Z,39.27
2023-04-18T03:31:31.218Z,39.20
2023-04-18T03:32:31.240Z,39.24
2023-04-18T03:33:31.257Z,39.22
2023-04-18T03:34:31.298Z,39.30
2023-04-18T03:35:31.331Z,39.27
2023-04-18T03:36:31.352Z,39.27
2023-04-18T03:37:31.376Z,39.27
2023-04-18T03:38:31.418Z,39.27
2023-04-18T03:39:31.439Z,39.27
2023-04-18T03:40:31.469Z,39.30
2023-04-18T03:41:31.515Z,39.32
2023-04-18T03:42:31.579Z,39.27
2023-04-18T03:43:31.583Z,39.29
2023-04-18T03:44:31.608Z,39.24
2023-04-18T03:45:31.698Z,39.29
2023-04-18T03:46:31.716Z,39.25
2023-04-18T03:47:31.757Z,39.27
2023-04-18T03:48:31.759Z,39.24
2023-04-18T03:49:31.831Z,39.26
2023-04-18T03:50:31.842Z,39.35
2023-04-18T03:51:31.900Z,39.30
2023-04-18T03:52:31.932Z,39.26
2023-04-18T03:53:31.983Z,39.30
2023-04-18T03:54:32.039Z,39.31
2023-04-18T03:55:32.085Z,39.27
2023-04-18T03:56:32.127Z,39.35
2023-04-18T03:57:32.140Z,39.27
2023-04-18T03:58:32.200Z,39.34
2023-04-18T03:59:32.206Z,39.34
2023-04-18T04:00:32.210Z,39.24
2023-04-18T04:01:32.308Z,39.22
2023-04-18T04:02:32.420Z,39.25
2023-04-18T04:03:32.314Z,39.31
2023-04-18T04:04:32.337Z,39.30
2023-04-18T04:05:32.303Z,39.35
2023-04-18T04:06:32.346Z,39.32
2023-04-18T04:07:32.368Z,39.25
2023-04-18T04:08:32.373Z,39.31
2023-04-18T04:09:32.405Z,39.31
2023-04-18T04:10:32.430Z,39.29
2023-04-18T04:11:32.461Z,39.32
2023-04-18T04:12:32.515Z,39.26
2023-04-18T04:13:32.533Z,39.29
2023-04-18T04:14:32.575Z,39.27
2023-04-18T04:15:32.581Z,39.25
2023-04-18T04:16:32.635Z,39.26
2023-04-18T04:17:32.779Z,39.30
2023-04-18T04:18:32.698Z,39.31
2023-04-18T04:19:32.732Z,39.31
2023-04-18T04:20:32.792Z,39.34
2023-04-18T04:21:32.814Z,39.27
2023-04-18T04:22:32.853Z,39.27
2023-04-18T04:23:32.881Z,39.22
2023-04-18T04:24:32.916Z,39.32
2023-04-18T04:25:32.944Z,39.32
2023-04-18T04:26:32.978Z,39.31
2023-04-18T04:27:32.977Z,39.34
2023-04-18T04:28:33.004Z,39.35
2023-04-18T04:29:33.043Z,39.34
2023-04-18T04:30:33.047Z,39.39
2023-04-18T04:31:33.088Z,39.32
2023-04-18T04:32:33.123Z,39.30
2023-04-18T04:33:33.078Z,39.30
2023-04-18T04:34:33.069Z,39.34
2023-04-18T04:35:33.095Z,39.26
2023-04-18T04:36:33.093Z,39.31
2023-04-18T04:37:33.109Z,39.33
2023-04-18T04:38:33.094Z,39.34
2023-04-18T04:39:33.137Z,39.35
2023-04-18T04:40:33.123Z,39.38
2023-04-18T04:41:33.115Z,39.38
2023-04-18T04:42:33.149Z,39.30
2023-04-18T04:43:33.144Z,39.37
2023-04-18T04:44:33.198Z,39.38
2023-04-18T04:45:33.255Z,39.38
2023-04-18T04:46:33.187Z,39.34
2023-04-18T04:47:33.251Z,39.41
2023-04-18T04:48:33.272Z,39.38
2023-04-18T04:49:33.285Z,39.44
2023-04-18T04:50:33.331Z,39.35
2023-04-18T04:51:33.357Z,39.32
2023-04-18T04:52:33.383Z,39.38
2023-04-18T04:53:33.393Z,39.36
2023-04-18T04:54:33.423Z,39.29
2023-04-18T04:55:33.441Z,39.32
2023-04-18T04:56:33.494Z,39.29
2023-04-18T04:57:33.528Z,39.29
2023-04-18T04:58:33.595Z,39.28
2023-04-18T04:59:33.598Z,39.31
2023-04-18T05:00:33.604Z,39.34
2023-04-18T05:01:33.681Z,39.30
2023-04-18T05:02:33.756Z,39.25
2023-04-18T05:03:33.792Z,39.31
2023-04-18T05:04:33.731Z,39.34
2023-04-18T05:05:33.672Z,39.38
2023-04-18T05:06:33.698Z,39.36
2023-04-18T05:07:33.790Z,39.38
2023-04-18T05:08:33.716Z,39.41
2023-04-18T05:09:33.756Z,39.41
2023-04-18T05:10:33.792Z,39.37
2023-04-18T05:11:33.824Z,39.34
2023-04-18T05:12:33.826Z,39.35
2023-04-18T05:13:33.850Z,39.42
2023-04-18T05:14:33.906Z,39.42
2023-04-18T05:15:33.935Z,39.38
2023-04-18T05:16:33.989Z,39.35
2023-04-18T05:17:33.994Z,39.43
2023-04-18T05:18:34.996Z,39.47
2023-04-18T05:19:34.062Z,39.32
2023-04-18T05:20:34.072Z,39.27
2023-04-18T05:21:34.219Z,39.21
2023-04-18T05:22:34.096Z,39.16
2023-04-18T05:23:34.141Z,39.08
2023-04-18T05:24:34.151Z,39.08
2023-04-18T05:25:34.180Z,39.18
2023-04-18T05:26:34.217Z,39.28
2023-04-18T05:27:34.255Z,39.37
2023-04-18T05:28:34.319Z,39.62
2023-04-18T05:29:34.353Z,39.95
2023-04-18T05:30:34.409Z,39.94
2023-04-18T05:31:34.552Z,40.24
2023-04-18T05:32:34.502Z,40.40
2023-04-18T05:33:34.519Z,40.85
2023-04-18T05:34:35.711Z,41.05
2023-04-18T05:35:34.550Z,41.61
2023-04-18T05:36:34.517Z,41.67
2023-04-18T05:37:34.493Z,42.12
2023-04-18T05:38:34.466Z,42.30
2023-04-18T05:39:34.444Z,42.63
2023-04-18T05:40:34.427Z,42.77
2023-04-18T05:41:34.400Z,42.93
2023-04-18T05:42:34.387Z,43.38
2023-04-18T05:43:34.359Z,43.64
2023-04-18T05:44:35.310Z,43.76
2023-04-18T05:45:34.309Z,44.09
2023-04-18T05:46:34.314Z,44.28
2023-04-18T05:47:34.311Z,44.28
2023-04-18T05:48:34.254Z,44.46
2023-04-18T05:49:34.223Z,45.00
2023-04-18T05:50:34.197Z,44.75
2023-04-18T05:51:34.162Z,45.00
2023-04-18T05:52:34.185Z,45.40
2023-04-18T05:53:34.115Z,45.51
2023-04-18T05:54:34.103Z,45.69
2023-04-18T05:55:34.057Z,45.82
2023-04-18T05:56:34.040Z,46.28
2023-04-18T05:57:34.000Z,46.16
2023-04-18T05:58:33.984Z,46.79
2023-04-18T05:59:33.950Z,46.91
2023-04-18T06:00:33.935Z,46.77
2023-04-18T06:01:33.894Z,46.74
2023-04-18T06:02:34.029Z,46.85
2023-04-18T06:03:34.073Z,47.06
2023-04-18T06:04:33.928Z,47.04
2023-04-18T06:05:33.993Z,47.15
2023-04-18T06:06:33.754Z,47.07
2023-04-18T06:07:33.711Z,47.23
2023-04-18T06:08:33.684Z,47.31
2023-04-18T06:09:33.709Z,47.31
2023-04-18T06:10:33.636Z,47.41
2023-04-18T06:11:33.597Z,47.57
2023-04-18T06:12:33.566Z,47.60
2023-04-18T06:13:33.526Z,47.80
2023-04-18T06:14:33.481Z,47.83
2023-04-18T06:15:33.442Z,47.91
2023-04-18T06:16:33.440Z,48.09
2023-04-18T06:17:33.402Z,48.08
2023-04-18T06:18:33.332Z,48.21
2023-04-18T06:19:33.289Z,48.16
2023-04-18T06:20:33.242Z,48.53
2023-04-18T06:21:33.203Z,48.48
2023-04-18T06:22:33.171Z,48.70
2023-04-18T06:23:33.144Z,48.21
2023-04-18T06:24:33.098Z,47.96
2023-04-18T06:25:33.165Z,47.93
2023-04-18T06:26:33.034Z,47.82
2023-04-18T06:27:33.022Z,47.85
2023-04-18T06:28:32.957Z,47.92
2023-04-18T06:29:32.911Z,48.04
2023-04-18T06:30:32.892Z,47.76
2023-04-18T06:31:32.893Z,47.92
2023-04-18T06:32:32.839Z,47.70
2023-04-18T06:33:32.781Z,47.69
2023-04-18T06:34:32.803Z,47.72
2023-04-18T06:35:32.721Z,47.45
2023-04-18T06:36:32.676Z,47.50
2023-04-18T06:37:32.646Z,47.38
2023-04-18T06:38:33.613Z,47.38
2023-04-18T06:39:32.571Z,47.31
2023-04-18T06:40:32.549Z,47.29
2023-04-18T06:41:32.520Z,47.35
2023-04-18T06:42:32.486Z,47.23
2023-04-18T06:43:32.460Z,47.26
2023-04-18T06:44:32.414Z,47.22
2023-04-18T06:45:32.474Z,47.18
2023-04-18T06:46:32.358Z,47.12
2023-04-18T06:47:32.346Z,47.07
2023-04-18T06:48:32.284Z,47.08
2023-04-18T06:49:32.255Z,47.03
2023-04-18T06:50:32.238Z,47.01
2023-04-18T06:51:32.187Z,46.96
2023-04-18T06:52:32.139Z,46.96
2023-04-18T06:53:32.156Z,46.98
2023-04-18T06:54:32.176Z,46.97
2023-04-18T06:55:32.190Z,46.96
2023-04-18T06:56:33.037Z,47.06
2023-04-18T06:57:32.218Z,47.12
2023-04-18T06:58:32.200Z,46.90
2023-04-18T06:59:32.210Z,46.84
2023-04-18T07:00:32.232Z,46.80
2023-04-18T07:02:32.402Z,46.84
2023-04-18T07:03:32.345Z,46.77
2023-04-18T07:04:32.289Z,46.80
2023-04-18T07:05:32.310Z,46.69
2023-04-18T07:06:32.308Z,46.70
2023-04-18T07:07:32.331Z,46.62
2023-04-18T07:08:32.323Z,46.64
2023-04-18T07:09:32.338Z,46.86
2023-04-18T07:10:32.352Z,46.59
2023-04-18T07:11:32.372Z,46.63
2023-04-18T07:12:32.389Z,46.56
2023-04-18T07:13:32.427Z,46.57
2023-04-18T07:14:34.187Z,46.49
2023-04-18T07:15:32.477Z,46.44
2023-04-18T07:16:32.468Z,46.51
2023-04-18T07:17:32.459Z,46.36
2023-04-18T07:18:38.066Z,46.34
2023-04-18T07:19:33.427Z,46.40
2023-04-18T07:20:32.401Z,46.54
2023-04-18T07:21:32.344Z,46.53
2023-04-18T07:22:32.330Z,46.57
2023-04-18T07:23:34.922Z,46.42
2023-04-18T07:24:32.500Z,45.94
2023-04-18T07:25:32.497Z,46.04
2023-04-18T07:26:32.513Z,46.16
2023-04-18T07:27:33.413Z,45.95
2023-04-18T07:28:32.465Z,45.90
2023-04-18T07:29:32.471Z,46.16
2023-04-18T07:30:32.439Z,46.26
2023-04-18T07:31:33.416Z,46.09
2023-04-18T07:32:32.486Z,46.07
2023-04-18T07:33:32.428Z,46.13
2023-04-18T07:34:32.426Z,46.35
2023-04-18T07:35:32.417Z,45.92
2023-04-18T07:36:32.418Z,43.28
2023-04-18T07:37:32.452Z,39.36
2023-04-18T07:38:33.420Z,38.39
2023-04-18T07:39:32.421Z,38.17
2023-04-18T07:40:32.427Z,37.06
2023-04-18T07:41:32.454Z,37.15
2023-04-18T07:42:32.495Z,37.31
2023-04-18T07:43:32.537Z,36.44
2023-04-18T07:44:32.613Z,36.36
2023-04-18T07:45:32.675Z,35.16
2023-04-18T07:46:32.734Z,33.99
2023-04-18T07:47:33.576Z,35.77
2023-04-18T07:48:32.730Z,34.26
2023-04-18T07:49:32.731Z,34.53
2023-04-18T07:50:32.756Z,34.58
2023-04-18T07:51:32.785Z,34.90
2023-04-18T07:52:32.772Z,34.10
2023-04-18T07:53:32.799Z,34.57
2023-04-18T07:54:32.841Z,35.12
2023-04-18T07:55:32.848Z,36.32
2023-04-18T07:56:32.861Z,36.76
2023-04-18T07:57:32.878Z,36.70
2023-04-18T07:58:32.913Z,36.71
2023-04-18T07:59:32.953Z,36.72
2023-04-18T08:00:33.003Z,36.44
2023-04-18T08:01:33.131Z,36.46
2023-04-18T08:02:33.156Z,36.63
2023-04-18T08:03:33.116Z,36.94
2023-04-18T08:04:33.231Z,37.26
2023-04-18T08:05:34.032Z,37.44
2023-04-18T08:06:33.194Z,37.73
2023-04-18T08:07:33.852Z,37.98
2023-04-18T08:08:33.194Z,38.04
2023-04-18T08:09:33.223Z,38.07
2023-04-18T08:10:33.253Z,37.90
2023-04-18T08:11:33.263Z,35.86
2023-04-18T08:12:33.265Z,36.63
2023-04-18T08:13:33.309Z,36.99
2023-04-18T08:14:33.319Z,36.47
2023-04-18T08:15:33.360Z,36.10
2023-04-18T08:16:33.495Z,37.18
2023-04-18T08:17:33.527Z,37.46
2023-04-18T08:18:33.483Z,36.44
2023-04-18T08:19:33.510Z,35.06
2023-04-18T08:20:33.570Z,34.55
2023-04-18T08:21:33.610Z,36.38
2023-04-18T08:22:33.695Z,35.34
2023-04-18T08:23:33.711Z,34.48
2023-04-18T08:24:33.787Z,34.70
2023-04-18T08:25:33.816Z,34.33
2023-04-18T08:26:33.835Z,34.90
2023-04-18T08:27:33.836Z,36.25
2023-04-18T08:28:33.897Z,36.44
2023-04-18T08:29:33.942Z,36.93
2023-04-18T08:30:33.980Z,37.45
2023-04-18T08:31:33.987Z,37.68
2023-04-18T08:32:34.008Z,37.93
2023-04-18T08:33:34.018Z,38.15
2023-04-18T08:34:34.035Z,38.45
2023-04-18T08:35:34.062Z,38.78
2023-04-18T08:36:34.102Z,39.08
2023-04-18T08:37:34.122Z,39.28
2023-04-18T08:38:34.150Z,39.48
2023-04-18T08:39:34.170Z,39.72
2023-04-18T08:40:34.264Z,39.96
2023-04-18T08:41:34.208Z,40.06
2023-04-18T08:42:34.224Z,40.25
2023-04-18T08:43:34.217Z,40.51
2023-04-18T08:44:34.208Z,40.49
2023-04-18T08:45:34.354Z,40.58
2023-04-18T08:46:34.209Z,40.79
2023-04-18T08:47:34.208Z,40.99
2023-04-18T08:48:34.180Z,41.00
2023-04-18T08:49:34.437Z,41.31
2023-04-18T08:50:34.146Z,41.51
2023-04-18T08:51:34.451Z,41.64
2023-04-18T08:52:34.164Z,41.83
2023-04-18T08:53:34.096Z,42.18
2023-04-18T08:54:34.052Z,42.32
2023-04-18T08:55:34.037Z,42.35
2023-04-18T08:56:34.008Z,42.62
2023-04-18T08:57:33.973Z,42.87
2023-04-18T08:58:33.972Z,42.88
2023-04-18T08:59:33.932Z,42.99
2023-04-18T09:00:33.900Z,43.09
2023-04-18T09:01:33.938Z,43.27
2023-04-18T09:02:33.900Z,43.43
2023-04-18T09:03:33.867Z,43.50
2023-04-18T09:04:33.963Z,43.57
2023-04-18T09:05:33.788Z,43.78
2023-04-18T09:06:33.767Z,44.00
2023-04-18T09:07:33.735Z,44.03
2023-04-18T09:08:33.715Z,44.08
2023-04-18T09:09:33.695Z,44.18
2023-04-18T09:10:33.667Z,44.39
2023-04-18T09:11:33.637Z,44.38
2023-04-18T09:12:33.602Z,44.58
2023-04-18T09:13:33.574Z,44.67
2023-04-18T09:14:33.606Z,44.81
2023-04-18T09:15:33.514Z,44.85
2023-04-18T09:16:33.521Z,45.01
2023-04-18T09:17:33.500Z,45.56
2023-04-18T09:18:33.425Z,45.00
2023-04-18T09:19:33.387Z,44.95
2023-04-18T09:20:33.363Z,45.06
2023-04-18T09:21:33.323Z,45.22
2023-04-18T09:22:33.316Z,45.35
2023-04-18T09:23:33.293Z,45.45
2023-04-18T09:24:33.274Z,45.28
2023-04-18T09:25:33.245Z,45.61
2023-04-18T09:26:33.223Z,45.54
2023-04-18T09:27:33.211Z,45.70
2023-04-18T09:28:33.272Z,45.91
2023-04-18T09:29:33.184Z,45.93
2023-04-18T09:30:33.231Z,46.27
2023-04-18T09:31:33.225Z,46.30
2023-04-18T09:32:33.214Z,46.67
2023-04-18T09:33:33.139Z,46.72
2023-04-18T09:34:33.099Z,46.78
2023-04-18T09:35:33.094Z,46.87
2023-04-18T09:36:33.109Z,46.87
2023-04-18T09:37:33.063Z,46.94
2023-04-18T09:38:32.995Z,47.21
2023-04-18T09:39:32.989Z,47.43
2023-04-18T09:40:32.993Z,47.30
2023-04-18T09:41:32.938Z,47.48
2023-04-18T09:42:32.911Z,47.75
2023-04-18T09:43:32.898Z,47.97
2023-04-18T09:44:32.876Z,47.95
2023-04-18T09:45:32.836Z,48.19
2023-04-18T09:46:32.850Z,48.11
2023-04-18T09:47:32.771Z,48.21
2023-04-18T09:48:32.691Z,48.34
2023-04-18T09:49:32.639Z,48.40
2023-04-18T09:50:32.619Z,48.53
2023-04-18T09:51:32.563Z,48.68
2023-04-18T09:52:32.509Z,48.82
2023-04-18T09:53:32.578Z,48.92
2023-04-18T09:54:32.427Z,48.90
2023-04-18T09:55:32.422Z,48.93
2023-04-18T09:56:32.425Z,49.21
2023-04-18T09:57:32.432Z,49.25
2023-04-18T09:58:32.458Z,49.36
2023-04-18T09:59:32.467Z,49.40
2023-04-18T10:00:32.614Z,49.40
2023-04-18T10:01:32.485Z,49.41
2023-04-18T10:02:32.524Z,49.70
2023-04-18T10:03:33.495Z,49.93
2023-04-18T10:04:32.543Z,49.95
2023-04-18T10:05:32.540Z,50.00
2023-04-18T10:06:43.613Z,50.02
2023-04-18T10:07:51.267Z,50.38
2023-04-18T10:08:51.354Z,50.32
2023-04-18T10:09:51.296Z,50.64
2023-04-18T10:10:52.934Z,50.30
2023-04-18T10:11:51.482Z,50.32
2023-04-18T10:12:51.320Z,50.32
2023-04-18T10:13:51.315Z,50.25
2023-04-18T10:14:51.388Z,50.27
2023-04-18T10:15:51.943Z,50.29
2023-04-18T10:16:51.321Z,50.22
2023-04-18T10:18:03.502Z,50.24
2023-04-18T10:18:52.361Z,50.24
2023-04-18T10:19:51.371Z,50.23
2023-04-18T10:20:51.379Z,50.20
2023-04-18T10:21:51.406Z,50.26
2023-04-18T10:22:52.406Z,50.29
2023-04-18T10:23:51.406Z,50.25
2023-04-18T10:24:51.431Z,50.34
2023-04-18T10:25:51.444Z,50.46
2023-04-18T10:26:51.454Z,50.45
2023-04-18T10:27:51.473Z,50.62
2023-04-18T10:28:51.488Z,50.50
2023-04-18T10:29:51.503Z,50.45
2023-04-18T10:30:51.754Z,50.51
2023-04-18T10:31:51.704Z,50.46
2023-04-18T10:32:51.577Z,50.48
2023-04-18T10:34:01.277Z,50.43
2023-04-18T10:34:52.648Z,50.44
2023-04-18T10:35:51.689Z,50.46
2023-04-18T10:36:51.684Z,50.49
2023-04-18T10:37:51.705Z,50.34
2023-04-18T10:38:51.712Z,50.32
2023-04-18T10:39:51.722Z,50.36
2023-04-18T10:40:51.786Z,50.41
2023-04-18T10:41:51.869Z,50.27
2023-04-18T10:42:52.438Z,50.27
2023-04-18T10:43:51.827Z,50.27
2023-04-18T10:44:51.917Z,50.17
2023-04-18T10:45:52.006Z,50.09
2023-04-18T10:46:52.187Z,50.13
2023-04-18T10:47:52.197Z,50.06
2023-04-18T10:48:52.226Z,49.98
2023-04-18T10:49:52.320Z,50.12
2023-04-18T10:50:52.402Z,50.00
2023-04-18T10:51:52.462Z,50.02
2023-04-18T10:52:52.542Z,49.89
2023-04-18T10:53:52.649Z,49.86
2023-04-18T10:54:52.633Z,49.81
2023-04-18T10:55:52.646Z,49.83
2023-04-18T10:56:53.208Z,49.78
2023-04-18T10:57:52.819Z,49.66
2023-04-18T10:58:52.708Z,49.68
2023-04-18T10:59:52.744Z,49.76
2023-04-18T11:00:52.777Z,49.71
2023-04-18T11:01:52.765Z,49.60
2023-04-18T11:02:52.946Z,49.64
2023-04-18T11:03:52.901Z,49.66
2023-04-18T11:04:52.940Z,49.58
2023-04-18T11:05:53.008Z,49.62
2023-04-18T11:06:53.128Z,49.71
2023-04-18T11:07:53.089Z,49.66
2023-04-18T11:08:53.430Z,49.67
2023-04-18T11:09:53.130Z,49.65
2023-04-18T11:10:54.893Z,49.68
2023-04-18T11:11:53.194Z,49.62
2023-04-18T11:12:53.208Z,49.78
2023-04-18T11:13:53.206Z,49.67
2023-04-18T11:14:53.249Z,49.70
2023-04-18T11:15:53.316Z,49.72
2023-04-18T11:16:53.481Z,49.68
2023-04-18T11:17:53.489Z,49.53
2023-04-18T11:18:53.540Z,49.73
2023-04-18T11:19:53.616Z,49.71
2023-04-18T11:20:53.787Z,49.61
2023-04-18T11:21:53.792Z,49.73
2023-04-18T11:22:53.841Z,49.67
2023-04-18T11:23:53.917Z,49.67
2023-04-18T11:24:53.998Z,49.71
2023-04-18T11:25:54.056Z,49.68
2023-04-18T11:26:54.131Z,49.70
2023-04-18T11:27:54.194Z,49.64
2023-04-18T11:28:54.329Z,49.65
2023-04-18T11:29:54.354Z,49.68
2023-04-18T11:30:54.406Z,49.64
2023-04-18T11:31:57.490Z,49.66
2023-04-18T11:32:54.516Z,49.69
2023-04-18T11:33:54.511Z,49.52
2023-04-18T11:34:54.540Z,49.53
2023-04-18T11:35:54.568Z,49.51
2023-04-18T11:36:54.581Z,49.63
2023-04-18T11:37:54.617Z,49.60
2023-04-18T11:38:54.631Z,49.55
2023-04-18T11:39:54.661Z,49.52
2023-04-18T11:40:54.678Z,49.53
2023-04-18T11:41:54.700Z,49.53
2023-04-18T11:42:54.711Z,49.54
2023-04-18T11:43:54.741Z,49.60
2023-04-18T11:44:54.873Z,49.47
2023-04-18T11:45:54.942Z,49.51
2023-04-18T11:46:54.821Z,49.53
2023-04-18T11:47:56.538Z,49.62
2023-04-18T11:48:54.840Z,49.51
2023-04-18T11:49:56.994Z,49.46
2023-04-18T11:50:54.878Z,49.42
2023-04-18T11:51:54.912Z,49.48
2023-04-18T11:52:54.923Z,49.40
2023-04-18T11:53:54.938Z,49.43
2023-04-18T11:54:54.972Z,49.40
2023-04-18T11:55:54.987Z,49.37
2023-04-18T11:56:55.043Z,49.36
2023-04-18T11:57:55.035Z,49.40
2023-04-18T11:58:55.068Z,49.39
2023-04-18T11:59:55.296Z,49.47
2023-04-18T12:00:55.102Z,49.38
2023-04-18T12:01:58.540Z,49.41
2023-04-18T12:02:55.288Z,49.44
2023-04-18T12:03:56.375Z,49.38
2023-04-18T12:04:55.759Z,49.36
2023-04-18T12:05:55.418Z,49.34
2023-04-18T12:06:55.247Z,49.43
2023-04-18T12:07:55.259Z,49.32
2023-04-18T12:08:55.277Z,49.31
2023-04-18T12:09:55.301Z,49.25
2023-04-18T12:10:56.969Z,49.24
2023-04-18T12:11:55.355Z,49.29
2023-04-18T12:12:55.407Z,49.16
2023-04-18T12:13:55.412Z,49.24
2023-04-18T12:14:55.431Z,49.26
2023-04-18T12:15:55.471Z,49.18
2023-04-18T12:16:55.490Z,49.17
2023-04-18T12:17:55.544Z,49.18
2023-04-18T12:18:55.533Z,49.14
2023-04-18T12:19:55.561Z,49.16
2023-04-18T12:20:55.574Z,49.10
2023-04-18T12:21:55.610Z,49.00
2023-04-18T12:22:55.615Z,48.98
2023-04-18T12:23:55.642Z,48.94
2023-04-18T12:24:55.684Z,48.96
2023-04-18T12:25:55.710Z,48.91
2023-04-18T12:26:55.720Z,49.01
2023-04-18T12:27:55.749Z,48.96
2023-04-18T12:28:55.781Z,48.93
2023-04-18T12:29:55.820Z,48.88
2023-04-18T12:30:55.856Z,48.84
2023-04-18T12:31:55.953Z,48.87
2023-04-18T12:32:56.091Z,48.82
2023-04-18T12:33:55.935Z,48.78
2023-04-18T12:34:55.936Z,48.76
2023-04-18T12:35:55.965Z,48.76
2023-04-18T12:36:55.992Z,48.70
2023-04-18T12:37:56.068Z,48.73
2023-04-18T12:38:56.061Z,48.72
2023-04-18T12:39:56.076Z,48.70
2023-04-18T12:40:56.099Z,48.61
2023-04-18T12:41:56.133Z,48.62
2023-04-18T12:42:56.170Z,48.59
2023-04-18T12:43:56.202Z,48.72
2023-04-18T12:44:56.314Z,48.54
2023-04-18T12:45:56.250Z,48.48
2023-04-18T12:46:56.318Z,48.52
2023-04-18T12:47:56.318Z,48.56
2023-04-18T12:48:56.559Z,48.50
2023-04-18T12:49:56.377Z,48.53
2023-04-18T12:50:56.393Z,48.50
2023-04-18T12:51:56.440Z,48.58
2023-04-18T12:52:56.464Z,48.54
2023-04-18T12:53:56.498Z,48.52